Time,TemperatureF,DewpointF,PressureIn,WindDirection,WindDirectionDegrees,WindSpeedMPH,WindSpeedGustMPH,Humidity,HourlyPrecipIn,Conditions,Clouds,dailyrainin,SoftwareType,DateUTC
2013-01-05 00:00:00,65.3,61.3,29.89,NNW,338,0.0,0.0,87,0.00,,---,0.00,VWS V13.01,2013-01-05 05:00:00,
2013-01-05 00:02:00,65.3,61.3,29.89,NNW,338,0.0,0.0,87,0.00,,---,0.00,VWS V13.01,2013-01-05 05:02:00,
2013-01-05 00:04:00,65.3,61.3,29.89,NNW,338,0.0,0.0,87,0.00,,---,0.00,VWS V13.01,2013-01-05 05:04:00,
2013-01-05 00:09:00,65.3,61.3,29.89,NNW,338,0.0,0.0,87,0.00,,---,0.00,VWS V13.01,2013-01-05 05:09:00,
2013-01-05 00:14:00,65.3,61.3,29.89,NNW,338,0.0,0.0,87,0.00,,---,0.00,VWS V13.01,2013-01-05 05:14:00,
2013-01-05 00:19:00,65.3,61.3,29.89,NNW,338,0.0,0.0,87,0.00,,---,0.00,VWS V13.01,2013-01-05 05:19:00,
2013-01-05 00:24:00,65.3,61.3,29.89,NNW,338,0.9,0.9,87,0.00,,---,0.00,VWS V13.01,2013-01-05 05:24:00,
2013-01-05 00:29:00,65.3,61.3,29.89,NNW,338,0.0,0.0,87,0.00,,---,0.00,VWS V13.01,2013-01-05 05:29:00,
2013-01-05 00:34:00,65.1,61.1,29.89,NW,315,0.0,0.0,87,0.00,,---,0.00,VWS V13.01,2013-01-05 05:34:00,
2013-01-05 00:39:00,65.1,61.1,29.89,NNW,338,1.9,1.9,87,0.00,,---,0.00,VWS V13.01,2013-01-05 05:39:00,
2013-01-05 00:44:00,65.1,61.1,29.89,NW,315,0.9,0.9,87,0.00,,---,0.00,VWS V13.01,2013-01-05 05:44:00,
2013-01-05 00:49:00,65.1,61.1,29.89,NW,315,0.0,0.0,87,0.00,,---,0.00,VWS V13.01,2013-01-05 05:49:00,
2013-01-05 00:54:00,65.1,61.1,29.89,NW,315,0.0,0.0,87,0.00,,---,0.00,VWS V13.01,2013-01-05 05:54:00,
2013-01-05 00:59:00,65.1,61.1,29.89,NW,315,0.0,0.0,87,0.00,,---,0.00,VWS V13.01,2013-01-05 05:59:00,
2013-01-05 01:00:00,65.1,61.1,29.89,NW,315,0.0,0.0,87,0.00,,---,0.00,VWS V13.01,2013-01-05 06:00:00,
2013-01-05 01:05:00,64.9,60.9,29.89,NW,315,0.0,0.2,87,0.00,,---,0.00,VWS V13.01,2013-01-05 06:05:00,
2013-01-05 01:10:00,64.9,60.9,29.89,NW,315,0.9,0.9,87,0.00,,---,0.00,VWS V13.01,2013-01-05 06:10:00,
2013-01-05 01:15:00,64.9,60.9,29.89,NW,315,0.0,0.8,87,0.00,,---,0.00,VWS V13.01,2013-01-05 06:15:00,
2013-01-05 01:20:00,64.9,60.9,29.89,NNW,338,0.0,0.0,87,0.00,,---,0.00,VWS V13.01,2013-01-05 06:20:00,
2013-01-05 01:25:00,64.7,61.1,29.89,NNW,338,0.0,0.0,88,0.00,,---,0.00,VWS V13.01,2013-01-05 06:25:00,
2013-01-05 01:30:00,64.7,61.1,29.89,NNW,338,0.0,0.0,88,0.00,,---,0.00,VWS V13.01,2013-01-05 06:30:00,
2013-01-05 01:35:00,64.7,61.1,29.89,NW,315,0.3,0.3,88,0.00,,---,0.00,VWS V13.01,2013-01-05 06:35:00,
2013-01-05 01:40:00,64.7,61.1,29.89,NNW,338,0.0,0.0,88,0.00,,---,0.00,VWS V13.01,2013-01-05 06:40:00,
2013-01-05 01:45:00,64.5,60.9,29.89,NW,315,0.0,0.0,88,0.00,,---,0.00,VWS V13.01,2013-01-05 06:45:00,
2013-01-05 01:50:00,64.5,60.9,29.88,NNW,338,1.7,1.7,88,0.00,,---,0.00,VWS V13.01,2013-01-05 06:50:00,
2013-01-05 01:55:00,64.5,60.9,29.88,NNW,338,0.9,0.9,88,0.00,,---,0.00,VWS V13.01,2013-01-05 06:55:00,
2013-01-05 02:00:00,64.5,60.9,29.89,NNW,338,0.0,0.0,88,0.00,,---,0.00,VWS V13.01,2013-01-05 07:00:00,
2013-01-05 02:05:00,64.5,60.9,29.89,NW,315,0.0,0.0,88,0.00,,---,0.00,VWS V13.01,2013-01-05 07:05:00,
2013-01-05 02:10:00,64.5,60.9,29.88,NW,315,0.0,0.0,88,0.00,,---,0.00,VWS V13.01,2013-01-05 07:10:00,
2013-01-05 02:15:00,64.5,60.9,29.88,NW,315,0.9,0.9,88,0.00,,---,0.00,VWS V13.01,2013-01-05 07:15:00,
2013-01-05 02:20:00,64.5,60.9,29.88,NW,315,0.9,0.9,88,0.00,,---,0.00,VWS V13.01,2013-01-05 07:20:00,
2013-01-05 02:25:00,64.5,60.9,29.88,NNW,338,0.0,0.0,88,0.00,,---,0.00,VWS V13.01,2013-01-05 07:25:00,
2013-01-05 02:30:00,64.2,60.6,29.88,NNW,338,0.6,0.6,88,0.00,,---,0.00,VWS V13.01,2013-01-05 07:30:00,
2013-01-05 02:35:00,64.2,60.6,29.88,NNW,338,1.7,1.7,88,0.00,,---,0.00,VWS V13.01,2013-01-05 07:35:00,
2013-01-05 02:40:00,64.2,60.6,29.88,NNW,338,0.6,0.6,88,0.00,,---,0.00,VWS V13.01,2013-01-05 07:40:00,
2013-01-05 02:45:00,64.0,60.4,29.88,NNW,338,1.2,1.2,88,0.00,,---,0.00,VWS V13.01,2013-01-05 07:45:00,
2013-01-05 02:50:00,64.0,60.4,29.88,NNW,338,0.6,0.6,88,0.00,,---,0.00,VWS V13.01,2013-01-05 07:50:00,
2013-01-05 02:55:00,64.0,60.4,29.88,NW,315,0.9,0.9,88,0.00,,---,0.00,VWS V13.01,2013-01-05 07:55:00,
2013-01-05 03:00:00,64.0,60.4,29.88,NNW,338,0.0,0.6,88,0.00,,---,0.00,VWS V13.01,2013-01-05 08:00:00,
2013-01-05 03:05:00,64.0,60.4,29.88,NW,315,0.0,0.0,88,0.00,,---,0.00,VWS V13.01,2013-01-05 08:05:00,
2013-01-05 03:10:00,64.0,60.4,29.88,NW,315,1.7,1.7,88,0.00,,---,0.00,VWS V13.01,2013-01-05 08:10:00,
2013-01-05 03:15:00,64.0,60.4,29.88,NW,315,0.0,0.8,88,0.00,,---,0.00,VWS V13.01,2013-01-05 08:15:00,
2013-01-05 03:20:00,64.0,60.4,29.88,NNW,338,0.0,0.0,88,0.00,,---,0.00,VWS V13.01,2013-01-05 08:20:00,
2013-01-05 03:26:00,64.0,60.4,29.88,NW,315,1.9,1.9,88,0.00,,---,0.00,VWS V13.01,2013-01-05 08:26:00,
2013-01-05 03:31:00,64.0,60.4,29.88,NW,315,0.0,0.0,88,0.00,,---,0.00,VWS V13.01,2013-01-05 08:31:00,
2013-01-05 03:36:00,64.0,60.4,29.88,NW,315,0.0,0.0,88,0.00,,---,0.00,VWS V13.01,2013-01-05 08:36:00,
2013-01-05 03:41:00,64.0,60.4,29.88,NW,315,1.7,1.7,88,0.00,,---,0.00,VWS V13.01,2013-01-05 08:41:00,
2013-01-05 03:46:00,64.0,60.4,29.88,NW,315,0.0,0.0,88,0.00,,---,0.00,VWS V13.01,2013-01-05 08:46:00,
2013-01-05 03:51:00,64.0,60.4,29.88,NW,315,1.9,1.9,88,0.00,,---,0.00,VWS V13.01,2013-01-05 08:51:00,
2013-01-05 03:56:00,64.0,60.4,29.88,NNW,338,0.0,0.0,88,0.00,,---,0.00,VWS V13.01,2013-01-05 08:56:00,
2013-01-05 04:01:00,64.0,60.4,29.88,NNW,338,0.0,0.0,88,0.00,,---,0.00,VWS V13.01,2013-01-05 09:01:00,
2013-01-05 04:06:00,64.0,60.4,29.88,NNW,338,0.0,0.0,88,0.00,,---,0.00,VWS V13.01,2013-01-05 09:06:00,
2013-01-05 04:11:00,63.8,60.2,29.88,NNW,338,0.0,0.0,88,0.00,,---,0.00,VWS V13.01,2013-01-05 09:11:00,
2013-01-05 04:16:00,64.0,60.1,29.88,NNW,338,0.0,0.0,87,0.00,,---,0.00,VWS V13.01,2013-01-05 09:16:00,
2013-01-05 04:21:00,64.0,60.1,29.88,NNW,338,0.0,0.0,87,0.00,,---,0.00,VWS V13.01,2013-01-05 09:21:00,
2013-01-05 04:26:00,64.0,60.1,29.88,NNW,338,0.0,0.0,87,0.00,,---,0.00,VWS V13.01,2013-01-05 09:26:00,
2013-01-05 04:31:00,64.0,60.1,29.88,NNW,338,0.0,0.0,87,0.00,,---,0.00,VWS V13.01,2013-01-05 09:31:00,
2013-01-05 04:36:00,64.0,60.1,29.88,NNW,338,0.0,0.0,87,0.00,,---,0.00,VWS V13.01,2013-01-05 09:36:00,
2013-01-05 04:41:00,63.6,59.7,29.88,NNW,338,0.0,0.0,87,0.00,,---,0.00,VWS V13.01,2013-01-05 09:41:00,
2013-01-05 04:46:00,63.6,59.7,29.88,NNW,338,0.3,0.3,87,0.00,,---,0.00,VWS V13.01,2013-01-05 09:46:00,
2013-01-05 04:51:00,63.6,59.7,29.88,NNW,338,0.0,0.0,87,0.00,,---,0.00,VWS V13.01,2013-01-05 09:51:00,
2013-01-05 04:56:00,63.6,59.7,29.87,NNW,338,0.0,0.0,87,0.00,,---,0.00,VWS V13.01,2013-01-05 09:56:00,
2013-01-05 05:01:00,63.5,59.6,29.87,NNW,338,0.0,0.0,87,0.00,,---,0.00,VWS V13.01,2013-01-05 10:01:00,
2013-01-05 05:06:00,63.5,59.6,29.87,NW,315,0.0,0.0,87,0.00,,---,0.00,VWS V13.01,2013-01-05 10:06:00,
2013-01-05 05:11:00,63.3,59.4,29.87,North,360,0.0,0.0,87,0.00,,---,0.00,VWS V13.01,2013-01-05 10:11:00,
2013-01-05 05:16:00,63.3,59.4,29.87,North,360,0.0,0.0,87,0.00,,---,0.00,VWS V13.01,2013-01-05 10:16:00,
2013-01-05 05:21:00,63.3,59.4,29.88,North,360,0.0,0.0,87,0.00,,---,0.00,VWS V13.01,2013-01-05 10:21:00,
2013-01-05 05:26:00,63.3,59.4,29.88,North,360,0.0,0.0,87,0.00,,---,0.00,VWS V13.01,2013-01-05 10:26:00,
2013-01-05 05:31:00,63.3,59.4,29.88,North,360,0.0,0.0,87,0.00,,---,0.00,VWS V13.01,2013-01-05 10:31:00,
2013-01-05 05:36:00,63.3,59.4,29.89,North,360,0.0,0.0,87,0.00,,---,0.00,VWS V13.01,2013-01-05 10:36:00,
2013-01-05 05:41:00,63.5,59.6,29.88,North,360,0.0,0.0,87,0.00,,---,0.00,VWS V13.01,2013-01-05 10:41:00,
2013-01-05 05:46:00,63.5,59.6,29.89,North,360,0.0,0.0,87,0.00,,---,0.00,VWS V13.01,2013-01-05 10:46:00,
2013-01-05 05:51:00,63.5,59.6,29.89,North,360,0.0,0.0,87,0.00,,---,0.00,VWS V13.01,2013-01-05 10:51:00,
2013-01-05 05:57:00,63.5,59.6,29.89,North,360,0.0,0.0,87,0.00,,---,0.00,VWS V13.01,2013-01-05 10:57:00,
2013-01-05 06:03:00,63.5,59.6,29.88,North,360,0.0,0.0,87,0.00,,---,0.00,VWS V13.01,2013-01-05 11:03:00,
2013-01-05 06:08:00,63.5,59.6,29.89,North,360,0.0,0.0,87,0.00,,---,0.00,VWS V13.01,2013-01-05 11:08:00,
2013-01-05 06:13:00,63.6,59.7,29.89,NNW,338,0.9,0.9,87,0.00,,---,0.00,VWS V13.01,2013-01-05 11:13:00,
2013-01-05 06:18:00,63.6,59.7,29.89,NNW,338,0.0,0.0,87,0.00,,---,0.00,VWS V13.01,2013-01-05 11:18:00,
2013-01-05 06:23:00,63.8,60.2,29.89,NW,315,0.0,0.0,88,0.00,,---,0.00,VWS V13.01,2013-01-05 11:23:00,
2013-01-05 06:28:00,64.0,60.4,29.89,West,270,0.0,1.1,88,0.00,,---,0.00,VWS V13.01,2013-01-05 11:28:00,
2013-01-05 06:33:00,64.0,60.4,29.89,NW,315,0.9,0.9,88,0.00,,---,0.00,VWS V13.01,2013-01-05 11:33:00,
2013-01-05 06:38:00,64.2,60.6,29.89,NNW,338,0.9,0.9,88,0.00,,---,0.00,VWS V13.01,2013-01-05 11:38:00,
2013-01-05 06:43:00,64.2,60.6,29.90,North,360,0.0,0.0,88,0.00,,---,0.00,VWS V13.01,2013-01-05 11:43:00,
2013-01-05 06:48:00,64.2,60.6,29.90,North,360,0.0,0.0,88,0.00,,---,0.00,VWS V13.01,2013-01-05 11:48:00,
2013-01-05 06:53:00,64.2,60.6,29.90,North,360,0.0,0.0,88,0.00,,---,0.00,VWS V13.01,2013-01-05 11:53:00,
2013-01-05 06:58:00,64.2,60.6,29.90,NNW,338,0.0,0.4,88,0.00,,---,0.00,VWS V13.01,2013-01-05 11:58:00,
2013-01-05 07:03:00,64.2,60.6,29.90,NNW,338,0.0,0.0,88,0.00,,---,0.00,VWS V13.01,2013-01-05 12:03:00,
2013-01-05 07:08:00,64.2,60.3,29.90,NW,315,0.0,0.0,87,0.00,,---,0.00,VWS V13.01,2013-01-05 12:08:00,
2013-01-05 07:13:00,64.2,60.3,29.91,North,360,0.0,0.0,87,0.00,,---,0.00,VWS V13.01,2013-01-05 12:13:00,
2013-01-05 07:18:00,64.2,60.3,29.91,NNW,338,0.0,0.0,87,0.00,,---,0.00,VWS V13.01,2013-01-05 12:18:00,
2013-01-05 07:23:00,64.2,60.3,29.91,NNW,338,0.6,0.6,87,0.00,,---,0.00,VWS V13.01,2013-01-05 12:23:00,
2013-01-05 07:28:00,64.2,60.3,29.91,NW,315,0.0,0.0,87,0.00,,---,0.00,VWS V13.01,2013-01-05 12:28:00,
2013-01-05 07:33:00,64.0,60.1,29.91,NW,315,0.6,0.6,87,0.00,,---,0.00,VWS V13.01,2013-01-05 12:33:00,
2013-01-05 07:38:00,64.0,60.1,29.91,WNW,292,0.6,0.6,87,0.00,,---,0.00,VWS V13.01,2013-01-05 12:38:00,
2013-01-05 07:43:00,63.6,59.7,29.91,NW,315,0.0,0.0,87,0.00,,---,0.00,VWS V13.01,2013-01-05 12:43:00,
2013-01-05 07:48:00,63.6,59.7,29.91,NW,315,0.6,0.6,87,0.00,,---,0.00,VWS V13.01,2013-01-05 12:48:00,
2013-01-05 07:53:00,63.6,59.7,29.91,NW,315,0.0,0.0,87,0.00,,---,0.00,VWS V13.01,2013-01-05 12:53:00,
2013-01-05 07:58:00,63.5,59.6,29.91,NW,315,0.0,0.0,87,0.00,,---,0.00,VWS V13.01,2013-01-05 12:58:00,
2013-01-05 08:03:00,63.6,59.7,29.91,NW,315,0.0,0.0,87,0.00,,---,0.00,VWS V13.01,2013-01-05 13:03:00,
2013-01-05 08:08:00,63.6,59.7,29.91,NNW,338,0.0,0.0,87,0.00,,---,0.00,VWS V13.01,2013-01-05 13:08:00,
2013-01-05 08:13:00,63.6,59.7,29.91,NNW,338,0.0,0.0,87,0.00,,---,0.00,VWS V13.01,2013-01-05 13:13:00,
2013-01-05 08:18:00,63.6,59.3,29.92,NNW,338,0.0,0.0,86,0.00,,---,0.00,VWS V13.01,2013-01-05 13:18:00,
2013-01-05 08:23:00,63.6,59.3,29.92,NNW,338,0.0,0.0,86,0.00,,---,0.00,VWS V13.01,2013-01-05 13:23:00,
2013-01-05 08:28:00,64.0,59.7,29.91,North,360,0.0,0.0,86,0.00,,---,0.00,VWS V13.01,2013-01-05 13:28:00,
2013-01-05 08:33:00,64.2,59.9,29.92,NNW,338,0.0,0.0,86,0.00,,---,0.00,VWS V13.01,2013-01-05 13:33:00,
2013-01-05 08:38:00,64.2,59.9,29.91,NNW,338,0.6,0.6,86,0.00,,---,0.00,VWS V13.01,2013-01-05 13:38:00,
2013-01-05 08:43:00,64.7,60.1,29.91,NW,315,0.0,2.2,85,0.00,,---,0.00,VWS V13.01,2013-01-05 13:43:00,
2013-01-05 08:48:00,65.1,60.5,29.92,NNW,338,0.0,0.0,85,0.00,,---,0.00,VWS V13.01,2013-01-05 13:48:00,
2013-01-05 08:53:00,65.4,60.8,29.92,NNW,338,0.0,0.0,85,0.00,,---,0.00,VWS V13.01,2013-01-05 13:53:00,
2013-01-05 08:58:00,66.0,61.0,29.92,NNW,338,0.0,1.1,84,0.00,,---,0.00,VWS V13.01,2013-01-05 13:58:00,
2013-01-05 09:03:00,66.3,61.3,29.92,NNW,338,0.9,0.9,84,0.00,,---,0.00,VWS V13.01,2013-01-05 14:03:00,
2013-01-05 09:08:00,66.7,61.7,29.92,NNW,338,0.9,0.9,84,0.00,,---,0.00,VWS V13.01,2013-01-05 14:08:00,
2013-01-05 09:13:00,67.1,62.1,29.92,NNW,338,0.0,1.5,84,0.00,,---,0.00,VWS V13.01,2013-01-05 14:13:00,
2013-01-05 09:18:00,67.2,61.9,29.92,NNW,338,0.0,0.0,83,0.00,,---,0.00,VWS V13.01,2013-01-05 14:18:00,
2013-01-05 09:23:00,67.6,62.3,29.92,WNW,292,0.9,0.9,83,0.00,,---,0.00,VWS V13.01,2013-01-05 14:23:00,
2013-01-05 09:28:00,68.1,62.4,29.92,NNW,338,0.0,0.0,82,0.00,,---,0.00,VWS V13.01,2013-01-05 14:28:00,
2013-01-05 09:33:00,68.5,62.8,29.92,NNW,338,0.0,0.0,82,0.00,,---,0.00,VWS V13.01,2013-01-05 14:33:00,
2013-01-05 09:38:00,68.7,62.6,29.92,NNW,338,3.3,3.3,81,0.00,,---,0.00,VWS V13.01,2013-01-05 14:38:00,
2013-01-05 09:43:00,69.0,62.9,29.92,NNW,338,4.6,4.6,81,0.00,,---,0.00,VWS V13.01,2013-01-05 14:43:00,
2013-01-05 09:48:00,69.4,63.0,29.92,North,360,3.3,3.3,80,0.00,,---,0.00,VWS V13.01,2013-01-05 14:48:00,
2013-01-05 09:53:00,69.8,63.4,29.92,North,360,0.6,0.6,80,0.00,,---,0.00,VWS V13.01,2013-01-05 14:53:00,
2013-01-05 09:58:00,70.1,63.7,29.92,NNW,338,2.2,3.5,80,0.00,,---,0.00,VWS V13.01,2013-01-05 14:58:00,
2013-01-05 10:04:00,70.5,64.0,29.92,NNW,338,0.0,0.4,80,0.00,,---,0.00,VWS V13.01,2013-01-05 15:04:00,
2013-01-05 10:09:00,70.7,63.9,29.92,NNW,338,1.2,1.2,79,0.00,,---,0.00,VWS V13.01,2013-01-05 15:09:00,
2013-01-05 10:14:00,70.8,64.0,29.92,NNW,338,1.7,1.7,79,0.00,,---,0.00,VWS V13.01,2013-01-05 15:14:00,
2013-01-05 10:19:00,71.2,64.4,29.92,NNW,338,3.9,3.9,79,0.00,,---,0.00,VWS V13.01,2013-01-05 15:19:00,
2013-01-05 10:24:00,71.4,64.6,29.92,NW,315,0.6,1.5,79,0.00,,---,0.00,VWS V13.01,2013-01-05 15:24:00,
2013-01-05 10:29:00,71.7,64.5,29.92,NNW,338,0.9,0.9,78,0.00,,---,0.00,VWS V13.01,2013-01-05 15:29:00,
2013-01-05 10:34:00,71.9,64.7,29.92,NNW,338,1.7,1.7,78,0.00,,---,0.00,VWS V13.01,2013-01-05 15:34:00,
2013-01-05 10:39:00,72.1,64.9,29.91,WNW,292,0.0,0.0,78,0.00,,---,0.00,VWS V13.01,2013-01-05 15:39:00,
2013-01-05 10:44:00,72.3,65.1,29.91,West,270,0.0,0.0,78,0.00,,---,0.00,VWS V13.01,2013-01-05 15:44:00,
2013-01-05 10:49:00,72.6,65.3,29.91,North,360,0.0,0.0,78,0.00,,---,0.00,VWS V13.01,2013-01-05 15:49:00,
2013-01-05 10:54:00,73.0,65.7,29.92,NNW,338,0.9,1.3,78,0.00,,---,0.00,VWS V13.01,2013-01-05 15:54:00,
2013-01-05 10:59:00,73.0,65.4,29.91,NNW,338,0.9,0.9,77,0.00,,---,0.00,VWS V13.01,2013-01-05 15:59:00,
2013-01-05 11:04:00,73.2,65.6,29.91,North,360,0.0,2.4,77,0.00,,---,0.00,VWS V13.01,2013-01-05 16:04:00,
2013-01-05 11:09:00,73.4,65.8,29.91,North,360,0.6,0.6,77,0.00,,---,0.00,VWS V13.01,2013-01-05 16:09:00,
2013-01-05 11:14:00,73.7,66.1,29.91,NNW,338,0.6,0.6,77,0.00,,---,0.00,VWS V13.01,2013-01-05 16:14:00,
2013-01-05 11:19:00,73.9,66.2,29.90,NNW,338,0.9,0.9,77,0.00,,---,0.00,VWS V13.01,2013-01-05 16:19:00,
2013-01-05 11:24:00,74.1,66.8,29.91,NNW,338,0.0,0.0,78,0.00,,---,0.00,VWS V13.01,2013-01-05 16:24:00,
2013-01-05 11:29:00,74.3,67.0,29.91,West,270,0.0,0.0,78,0.00,,---,0.00,VWS V13.01,2013-01-05 16:29:00,
2013-01-05 11:34:00,74.4,67.1,29.91,NW,315,0.0,0.6,78,0.00,,---,0.00,VWS V13.01,2013-01-05 16:34:00,
2013-01-05 11:39:00,74.4,67.1,29.90,NNW,338,5.2,5.2,78,0.00,,---,0.00,VWS V13.01,2013-01-05 16:39:00,
2013-01-05 11:44:00,74.8,67.5,29.90,North,360,0.0,0.0,78,0.00,,---,0.00,VWS V13.01,2013-01-05 16:44:00,
2013-01-05 11:49:00,74.8,67.5,29.90,NNW,338,0.9,0.9,78,0.00,,---,0.00,VWS V13.01,2013-01-05 16:49:00,
2013-01-05 11:54:00,75.0,67.7,29.89,North,360,0.0,0.0,78,0.00,,---,0.00,VWS V13.01,2013-01-05 16:54:00,
2013-01-05 11:59:00,75.0,67.7,29.89,North,360,0.9,0.9,78,0.00,,---,0.00,VWS V13.01,2013-01-05 16:59:00,
2013-01-05 12:04:00,75.2,67.9,29.89,WNW,292,1.7,1.7,78,0.00,,---,0.00,VWS V13.01,2013-01-05 17:04:00,
2013-01-05 12:09:00,75.0,67.7,29.89,NNW,338,0.0,0.0,78,0.00,,---,0.00,VWS V13.01,2013-01-05 17:09:00,
2013-01-05 12:14:00,74.8,67.5,29.89,WSW,248,0.0,0.0,78,0.00,,---,0.00,VWS V13.01,2013-01-05 17:14:00,
2013-01-05 12:19:00,74.6,67.3,29.88,West,270,0.0,0.6,78,0.00,,---,0.00,VWS V13.01,2013-01-05 17:19:00,
2013-01-05 12:24:00,74.8,67.5,29.88,WNW,292,0.0,0.0,78,0.00,,---,0.00,VWS V13.01,2013-01-05 17:24:00,
2013-01-05 12:29:00,75.2,68.2,29.88,West,270,0.0,0.0,79,0.00,,---,0.00,VWS V13.01,2013-01-05 17:29:00,
2013-01-05 12:34:00,75.5,68.2,29.88,West,270,0.0,0.0,78,0.00,,---,0.00,VWS V13.01,2013-01-05 17:34:00,
2013-01-05 12:39:00,75.5,67.8,29.87,West,270,0.0,0.0,77,0.00,,---,0.00,VWS V13.01,2013-01-05 17:39:00,
2013-01-05 12:44:00,75.7,68.0,29.87,West,270,0.0,0.0,77,0.00,,---,0.00,VWS V13.01,2013-01-05 17:44:00,
2013-01-05 12:49:00,75.9,68.2,29.87,West,270,0.9,0.9,77,0.00,,---,0.00,VWS V13.01,2013-01-05 17:49:00,
2013-01-05 12:55:00,75.7,68.0,29.86,WNW,292,0.6,0.6,77,0.00,,---,0.00,VWS V13.01,2013-01-05 17:55:00,
2013-01-05 13:00:00,75.7,67.6,29.86,NNW,338,0.0,0.0,76,0.00,,---,0.00,VWS V13.01,2013-01-05 18:00:00,
2013-01-05 13:06:00,75.9,67.8,29.86,West,270,0.0,0.0,76,0.00,,---,0.00,VWS V13.01,2013-01-05 18:06:00,
2013-01-05 13:11:00,75.9,67.8,29.86,West,270,0.0,0.0,76,0.00,,---,0.00,VWS V13.01,2013-01-05 18:11:00,
2013-01-05 13:16:00,75.9,67.8,29.86,WSW,248,0.0,0.0,76,0.00,,---,0.00,VWS V13.01,2013-01-05 18:16:00,
2013-01-05 13:21:00,75.9,67.8,29.86,NW,315,0.0,0.0,76,0.00,,---,0.00,VWS V13.01,2013-01-05 18:21:00,
2013-01-05 13:26:00,75.7,67.6,29.86,NNW,338,0.0,0.0,76,0.00,,---,0.00,VWS V13.01,2013-01-05 18:26:00,
2013-01-05 13:31:00,75.9,68.2,29.85,NW,315,0.0,0.0,77,0.00,,---,0.00,VWS V13.01,2013-01-05 18:31:00,
2013-01-05 13:36:00,75.7,68.0,29.85,SW,225,0.0,0.4,77,0.00,,---,0.00,VWS V13.01,2013-01-05 18:36:00,
2013-01-05 13:41:00,75.7,68.0,29.85,WSW,248,0.0,0.0,77,0.00,,---,0.00,VWS V13.01,2013-01-05 18:41:00,
2013-01-05 13:46:00,75.7,68.0,29.84,NNW,338,0.0,0.0,77,0.00,,---,0.00,VWS V13.01,2013-01-05 18:46:00,
2013-01-05 13:51:00,75.7,68.0,29.85,NNW,338,0.0,0.0,77,0.00,,---,0.00,VWS V13.01,2013-01-05 18:51:00,
2013-01-05 13:56:00,75.5,68.2,29.84,West,270,0.0,0.0,78,0.00,,---,0.00,VWS V13.01,2013-01-05 18:56:00,
2013-01-05 14:01:00,75.5,68.2,29.84,NW,315,1.9,1.9,78,0.00,,---,0.00,VWS V13.01,2013-01-05 19:01:00,
2013-01-05 14:06:00,75.5,68.2,29.85,West,270,0.0,0.0,78,0.00,,---,0.00,VWS V13.01,2013-01-05 19:06:00,
2013-01-05 14:11:00,75.5,68.2,29.84,West,270,0.0,0.0,78,0.00,,---,0.00,VWS V13.01,2013-01-05 19:11:00,
2013-01-05 14:16:00,75.5,68.2,29.84,WNW,292,0.0,0.0,78,0.00,,---,0.00,VWS V13.01,2013-01-05 19:16:00,
2013-01-05 14:21:00,75.7,68.7,29.84,WNW,292,0.0,0.0,79,0.00,,---,0.00,VWS V13.01,2013-01-05 19:21:00,
2013-01-05 14:26:00,75.7,68.4,29.84,WNW,292,0.0,0.0,78,0.00,,---,0.00,VWS V13.01,2013-01-05 19:26:00,
2013-01-05 14:31:00,75.7,68.4,29.84,West,270,0.0,0.0,78,0.00,,---,0.00,VWS V13.01,2013-01-05 19:31:00,
2013-01-05 14:36:00,75.7,68.7,29.84,West,270,0.0,0.0,79,0.00,,---,0.00,VWS V13.01,2013-01-05 19:36:00,
2013-01-05 14:41:00,75.9,68.9,29.84,North,360,0.0,0.0,79,0.00,,---,0.00,VWS V13.01,2013-01-05 19:41:00,
2013-01-05 14:46:00,75.9,68.9,29.84,WNW,292,1.2,1.2,79,0.00,,---,0.00,VWS V13.01,2013-01-05 19:46:00,
2013-01-05 14:51:00,76.2,69.2,29.84,West,270,0.0,0.0,79,0.00,,---,0.00,VWS V13.01,2013-01-05 19:51:00,
2013-01-05 14:56:00,76.6,69.2,29.83,North,360,0.9,0.9,78,0.00,,---,0.00,VWS V13.01,2013-01-05 19:56:00,
2013-01-05 15:01:00,76.6,69.2,29.84,NNW,338,0.0,0.0,78,0.00,,---,0.00,VWS V13.01,2013-01-05 20:01:00,
2013-01-05 15:06:00,76.4,68.7,29.84,North,360,0.0,0.6,77,0.00,,---,0.00,VWS V13.01,2013-01-05 20:06:00,
2013-01-05 15:11:00,76.4,68.7,29.84,North,360,0.0,0.0,77,0.00,,---,0.00,VWS V13.01,2013-01-05 20:11:00,
2013-01-05 15:16:00,76.4,69.0,29.84,WNW,292,0.0,0.0,78,0.00,,---,0.00,VWS V13.01,2013-01-05 20:16:00,
2013-01-05 15:21:00,76.4,68.7,29.84,West,270,0.0,0.0,77,0.00,,---,0.00,VWS V13.01,2013-01-05 20:21:00,
2013-01-05 15:27:00,76.2,68.5,29.84,NW,315,0.0,0.0,77,0.00,,---,0.00,VWS V13.01,2013-01-05 20:27:00,
2013-01-05 15:32:00,76.2,68.5,29.84,North,360,0.0,0.0,77,0.00,,---,0.00,VWS V13.01,2013-01-05 20:32:00,
2013-01-05 15:37:00,76.1,68.4,29.84,West,270,0.0,0.0,77,0.00,,---,0.00,VWS V13.01,2013-01-05 20:37:00,
2013-01-05 15:42:00,75.9,68.2,29.84,SW,225,0.0,0.0,77,0.00,,---,0.00,VWS V13.01,2013-01-05 20:42:00,
2013-01-05 15:47:00,75.9,68.2,29.84,WNW,292,0.0,0.0,77,0.00,,---,0.00,VWS V13.01,2013-01-05 20:47:00,
2013-01-05 15:52:00,75.7,68.0,29.84,NNW,338,0.0,0.0,77,0.00,,---,0.00,VWS V13.01,2013-01-05 20:52:00,
2013-01-05 15:57:00,75.7,68.4,29.84,NNW,338,0.0,0.0,78,0.00,,---,0.00,VWS V13.01,2013-01-05 20:57:00,
2013-01-05 16:02:00,75.5,68.2,29.84,NNW,338,0.0,0.0,78,0.00,,---,0.00,VWS V13.01,2013-01-05 21:02:00,
2013-01-05 16:07:00,75.3,68.0,29.84,North,360,0.9,0.9,78,0.00,,---,0.00,VWS V13.01,2013-01-05 21:07:00,
2013-01-05 16:13:00,75.3,68.0,29.84,NNW,338,0.0,0.0,78,0.00,,---,0.00,VWS V13.01,2013-01-05 21:13:00,
2013-01-05 16:18:00,75.0,67.7,29.84,NNW,338,0.0,0.0,78,0.00,,---,0.00,VWS V13.01,2013-01-05 21:18:00,
2013-01-05 16:23:00,75.0,67.7,29.84,NNW,338,0.0,0.0,78,0.00,,---,0.00,VWS V13.01,2013-01-05 21:23:00,
2013-01-05 16:28:00,75.0,67.7,29.84,NNW,338,0.0,0.0,78,0.00,,---,0.00,VWS V13.01,2013-01-05 21:28:00,
2013-01-05 16:34:00,74.8,67.9,29.84,NNW,338,0.0,0.0,79,0.00,,---,0.00,VWS V13.01,2013-01-05 21:34:00,
2013-01-05 16:39:00,74.8,67.9,29.84,NNW,338,0.0,0.0,79,0.00,,---,0.00,VWS V13.01,2013-01-05 21:39:00,
2013-01-05 16:44:00,74.8,67.9,29.85,NNW,338,0.0,0.0,79,0.00,,---,0.00,VWS V13.01,2013-01-05 21:44:00,
2013-01-05 16:49:00,74.6,67.7,29.85,NNW,338,0.0,0.0,79,0.00,,---,0.00,VWS V13.01,2013-01-05 21:49:00,
2013-01-05 16:55:00,74.4,67.8,29.85,NNW,338,0.0,0.0,80,0.00,,---,0.00,VWS V13.01,2013-01-05 21:55:00,
2013-01-05 17:00:00,74.4,67.8,29.85,NNW,338,0.0,0.0,80,0.00,,---,0.00,VWS V13.01,2013-01-05 22:00:00,
2013-01-05 17:05:00,74.4,67.8,29.85,NNW,338,0.0,0.0,80,0.00,,---,0.00,VWS V13.01,2013-01-05 22:05:00,
2013-01-05 17:10:00,74.3,67.7,29.85,NNW,338,0.0,0.0,80,0.00,,---,0.00,VWS V13.01,2013-01-05 22:10:00,
2013-01-05 17:15:00,74.3,67.7,29.85,NNW,338,0.0,0.0,80,0.00,,---,0.00,VWS V13.01,2013-01-05 22:15:00,
2013-01-05 17:20:00,74.1,67.5,29.85,NNW,338,0.0,0.0,80,0.00,,---,0.00,VWS V13.01,2013-01-05 22:20:00,
2013-01-05 17:25:00,74.1,67.5,29.84,NNW,338,0.0,0.0,80,0.00,,---,0.00,VWS V13.01,2013-01-05 22:25:00,
2013-01-05 17:30:00,74.1,67.5,29.85,NNW,338,0.0,0.0,80,0.00,,---,0.00,VWS V13.01,2013-01-05 22:30:00,
2013-01-05 17:35:00,73.9,67.3,29.85,NNW,338,0.0,0.0,80,0.00,,---,0.00,VWS V13.01,2013-01-05 22:35:00,
2013-01-05 17:40:00,73.5,67.0,29.85,NNW,338,0.0,0.0,80,0.00,,---,0.00,VWS V13.01,2013-01-05 22:40:00,
2013-01-05 17:45:00,73.5,67.0,29.85,NNW,338,0.0,0.0,80,0.00,,---,0.00,VWS V13.01,2013-01-05 22:45:00,
2013-01-05 17:50:00,73.5,67.3,29.85,NNW,338,0.0,0.0,81,0.00,,---,0.00,VWS V13.01,2013-01-05 22:50:00,
2013-01-05 17:55:00,73.4,67.2,29.86,NNW,338,0.0,0.0,81,0.00,,---,0.00,VWS V13.01,2013-01-05 22:55:00,
2013-01-05 18:00:00,73.4,67.2,29.86,NNW,338,0.0,0.0,81,0.00,,---,0.00,VWS V13.01,2013-01-05 23:00:00,
2013-01-05 18:05:00,73.2,67.0,29.86,NNW,338,0.0,0.0,81,0.00,,---,0.00,VWS V13.01,2013-01-05 23:05:00,
2013-01-05 18:11:00,73.2,67.0,29.86,NNW,338,0.0,0.0,81,0.00,,---,0.00,VWS V13.01,2013-01-05 23:11:00,
2013-01-05 18:16:00,73.2,67.0,29.86,NNW,338,0.0,0.0,81,0.00,,---,0.00,VWS V13.01,2013-01-05 23:16:00,
2013-01-05 18:21:00,73.2,67.4,29.86,NNW,338,0.0,0.0,82,0.00,,---,0.00,VWS V13.01,2013-01-05 23:21:00,
2013-01-05 18:26:00,73.2,67.4,29.86,NNW,338,0.0,0.0,82,0.00,,---,0.00,VWS V13.01,2013-01-05 23:26:00,
2013-01-05 18:31:00,73.2,67.4,29.86,NNW,338,0.0,0.0,82,0.00,,---,0.00,VWS V13.01,2013-01-05 23:31:00,
2013-01-05 18:37:00,73.0,67.2,29.86,NNW,338,0.0,0.0,82,0.00,,---,0.00,VWS V13.01,2013-01-05 23:37:00,
2013-01-05 18:42:00,73.0,67.2,29.86,NNW,338,0.0,0.0,82,0.00,,---,0.00,VWS V13.01,2013-01-05 23:42:00,
2013-01-05 18:48:00,73.0,67.2,29.86,NNW,338,0.0,0.0,82,0.00,,---,0.00,VWS V13.01,2013-01-05 23:48:00,
2013-01-05 18:53:00,73.0,67.2,29.87,NNW,338,0.0,0.0,82,0.00,,---,0.00,VWS V13.01,2013-01-05 23:53:00,
2013-01-05 18:58:00,73.0,67.2,29.87,NNW,338,0.0,0.0,82,0.00,,---,0.00,VWS V13.01,2013-01-05 23:58:00,
2013-01-05 19:03:00,72.8,67.3,29.87,NNW,338,0.0,0.0,83,0.00,,---,0.00,VWS V13.01,2013-01-06 00:03:00,
2013-01-05 19:09:00,72.8,67.3,29.87,NNW,338,0.0,0.0,83,0.00,,---,0.00,VWS V13.01,2013-01-06 00:09:00,
2013-01-05 19:14:00,72.6,67.2,29.87,NNW,338,0.0,0.0,83,0.00,,---,0.00,VWS V13.01,2013-01-06 00:14:00,
2013-01-05 19:19:00,72.6,67.2,29.87,NNW,338,0.0,0.0,83,0.00,,---,0.00,VWS V13.01,2013-01-06 00:19:00,
2013-01-05 19:24:00,72.6,67.2,29.87,NNW,338,0.0,0.0,83,0.00,,---,0.00,VWS V13.01,2013-01-06 00:24:00,
2013-01-05 19:29:00,72.6,67.2,29.88,NNW,338,0.0,0.0,83,0.00,,---,0.00,VWS V13.01,2013-01-06 00:29:00,
2013-01-05 19:34:00,72.5,67.1,29.88,NNW,338,0.0,0.0,83,0.00,,---,0.00,VWS V13.01,2013-01-06 00:34:00,
2013-01-05 19:39:00,72.5,67.1,29.88,NNW,338,0.0,0.0,83,0.00,,---,0.00,VWS V13.01,2013-01-06 00:39:00,
2013-01-05 19:44:00,72.5,67.1,29.88,NNW,338,0.0,0.0,83,0.00,,---,0.00,VWS V13.01,2013-01-06 00:44:00,
2013-01-05 19:49:00,72.3,67.2,29.88,NNW,338,0.0,0.0,84,0.00,,---,0.00,VWS V13.01,2013-01-06 00:49:00,
2013-01-05 19:54:00,72.3,67.2,29.88,NNW,338,0.0,0.0,84,0.00,,---,0.00,VWS V13.01,2013-01-06 00:54:00,
2013-01-05 19:59:00,72.3,67.2,29.88,NNW,338,0.0,0.0,84,0.00,,---,0.00,VWS V13.01,2013-01-06 00:59:00,
2013-01-05 20:04:00,72.3,67.2,29.88,NNW,338,0.0,0.0,84,0.00,,---,0.00,VWS V13.01,2013-01-06 01:04:00,
2013-01-05 20:09:00,72.3,67.2,29.88,NNW,338,0.0,0.0,84,0.00,,---,0.00,VWS V13.01,2013-01-06 01:09:00,
2013-01-05 20:14:00,72.3,67.2,29.88,NNW,338,0.0,0.0,84,0.00,,---,0.00,VWS V13.01,2013-01-06 01:14:00,
2013-01-05 20:19:00,72.3,67.2,29.88,NNW,338,0.0,0.0,84,0.00,,---,0.00,VWS V13.01,2013-01-06 01:19:00,
2013-01-05 20:24:00,72.1,67.0,29.89,North,360,0.0,0.0,84,0.00,,---,0.00,VWS V13.01,2013-01-06 01:24:00,
2013-01-05 20:29:00,71.9,66.8,29.89,North,360,0.0,0.0,84,0.02,,---,0.02,VWS V13.01,2013-01-06 01:29:00,
2013-01-05 20:34:00,71.9,67.2,29.89,NNW,338,0.0,0.0,85,0.04,,---,0.04,VWS V13.01,2013-01-06 01:34:00,
2013-01-05 20:39:00,71.7,66.9,29.89,NNW,338,0.0,0.0,85,0.06,,---,0.06,VWS V13.01,2013-01-06 01:39:00,
2013-01-05 20:44:00,71.7,66.9,29.90,NNW,338,0.0,0.0,85,0.06,,---,0.06,VWS V13.01,2013-01-06 01:44:00,
2013-01-05 20:49:00,71.4,67.0,29.90,NNW,338,0.0,0.0,86,0.10,,---,0.10,VWS V13.01,2013-01-06 01:49:00,
2013-01-05 20:54:00,71.4,67.0,29.89,NW,315,0.0,0.0,86,0.14,,---,0.15,VWS V13.01,2013-01-06 01:54:00,
2013-01-05 20:59:00,71.4,67.0,29.89,NW,315,0.0,0.0,86,0.14,,---,0.15,VWS V13.01,2013-01-06 01:59:00,
2013-01-05 21:04:00,71.4,67.0,29.89,NW,315,0.0,0.0,86,0.16,,---,0.17,VWS V13.01,2013-01-06 02:04:00,
2013-01-05 21:09:00,71.2,67.1,29.89,NW,315,0.0,0.0,87,0.16,,---,0.17,VWS V13.01,2013-01-06 02:09:00,
2013-01-05 21:14:00,71.2,67.1,29.90,WNW,292,0.0,0.0,87,0.16,,---,0.17,VWS V13.01,2013-01-06 02:14:00,
2013-01-05 21:20:00,71.2,67.1,29.89,WNW,292,0.0,0.0,87,0.16,,---,0.17,VWS V13.01,2013-01-06 02:20:00,
2013-01-05 21:25:00,71.2,67.1,29.89,NW,315,0.0,0.0,87,0.16,,---,0.17,VWS V13.01,2013-01-06 02:25:00,
2013-01-05 21:30:00,71.0,66.9,29.89,NW,315,0.0,0.0,87,0.14,,---,0.17,VWS V13.01,2013-01-06 02:30:00,
2013-01-05 21:35:00,70.8,66.7,29.89,NW,315,0.0,0.0,87,0.10,,---,0.17,VWS V13.01,2013-01-06 02:35:00,
2013-01-05 21:40:00,70.8,66.7,29.89,NW,315,0.0,0.0,87,0.10,,---,0.17,VWS V13.01,2013-01-06 02:40:00,
2013-01-05 21:45:00,70.8,66.7,29.89,NW,315,0.0,0.0,87,0.08,,---,0.17,VWS V13.01,2013-01-06 02:45:00,
2013-01-05 21:50:00,70.8,66.7,29.89,NW,315,0.0,0.0,87,0.02,,---,0.17,VWS V13.01,2013-01-06 02:50:00,
2013-01-05 21:55:00,70.8,66.7,29.89,NW,315,0.0,0.0,87,0.02,,---,0.17,VWS V13.01,2013-01-06 02:55:00,
2013-01-05 22:00:00,70.8,66.7,29.89,NW,315,0.0,0.0,87,0.00,,---,0.17,VWS V13.01,2013-01-06 03:00:00,
2013-01-05 22:05:00,70.7,66.7,29.89,NW,315,0.0,0.0,87,0.00,,---,0.17,VWS V13.01,2013-01-06 03:05:00,
2013-01-05 22:10:00,70.5,66.4,29.89,NW,315,0.0,0.0,87,0.00,,---,0.17,VWS V13.01,2013-01-06 03:10:00,
2013-01-05 22:15:00,70.5,66.4,29.89,NW,315,0.0,0.0,87,0.00,,---,0.17,VWS V13.01,2013-01-06 03:15:00,
2013-01-05 22:20:00,70.5,66.4,29.89,NW,315,0.0,0.0,87,0.00,,---,0.17,VWS V13.01,2013-01-06 03:20:00,
2013-01-05 22:25:00,70.3,66.2,29.89,NW,315,0.0,0.0,87,0.00,,---,0.17,VWS V13.01,2013-01-06 03:25:00,
2013-01-05 22:30:00,70.3,66.6,29.88,NW,315,0.0,0.0,88,0.00,,---,0.17,VWS V13.01,2013-01-06 03:30:00,
2013-01-05 22:35:00,70.3,66.6,29.88,NW,315,0.0,0.0,88,0.00,,---,0.17,VWS V13.01,2013-01-06 03:35:00,
2013-01-05 22:40:00,70.3,66.6,29.88,NW,315,0.0,0.0,88,0.00,,---,0.17,VWS V13.01,2013-01-06 03:40:00,
2013-01-05 22:45:00,70.3,66.6,29.88,NW,315,0.0,0.0,88,0.00,,---,0.17,VWS V13.01,2013-01-06 03:45:00,
2013-01-05 22:50:00,70.3,66.6,29.88,NW,315,0.0,0.0,88,0.00,,---,0.17,VWS V13.01,2013-01-06 03:50:00,
2013-01-05 22:55:00,70.3,66.6,29.88,NW,315,0.0,0.0,88,0.00,,---,0.17,VWS V13.01,2013-01-06 03:55:00,
2013-01-05 23:00:00,70.3,66.6,29.88,NW,315,0.0,0.0,88,0.00,,---,0.17,VWS V13.01,2013-01-06 04:00:00,
2013-01-05 23:05:00,70.3,66.6,29.87,NW,315,0.0,0.0,88,0.00,,---,0.17,VWS V13.01,2013-01-06 04:05:00,
2013-01-05 23:10:00,70.3,66.6,29.87,NW,315,0.0,0.0,88,0.00,,---,0.17,VWS V13.01,2013-01-06 04:10:00,
2013-01-05 23:15:00,70.3,66.6,29.87,NW,315,0.0,0.0,88,0.00,,---,0.17,VWS V13.01,2013-01-06 04:15:00,
2013-01-05 23:20:00,70.1,66.4,29.87,NW,315,0.0,0.0,88,0.00,,---,0.17,VWS V13.01,2013-01-06 04:20:00,
2013-01-05 23:25:00,70.1,66.4,29.87,NW,315,0.0,0.0,88,0.00,,---,0.17,VWS V13.01,2013-01-06 04:25:00,
2013-01-05 23:30:00,70.1,66.4,29.87,NW,315,0.0,0.0,88,0.00,,---,0.17,VWS V13.01,2013-01-06 04:30:00,
2013-01-05 23:36:00,69.9,66.2,29.86,NW,315,0.0,0.0,88,0.00,,---,0.17,VWS V13.01,2013-01-06 04:36:00,
2013-01-05 23:41:00,69.9,66.2,29.86,NW,315,0.0,0.0,88,0.00,,---,0.17,VWS V13.01,2013-01-06 04:41:00,
2013-01-05 23:46:00,69.9,66.2,29.86,NW,315,0.0,0.0,88,0.00,,---,0.17,VWS V13.01,2013-01-06 04:46:00,
2013-01-05 23:51:00,69.9,66.2,29.87,NW,315,0.0,0.0,88,0.00,,---,0.17,VWS V13.01,2013-01-06 04:51:00,
2013-01-05 23:56:00,69.9,66.2,29.87,NW,315,0.0,0.0,88,0.00,,---,0.17,VWS V13.01,2013-01-06 04:56:00,